Central Sonoma County Latest

37 Stations

15 Minute Data | America/Los_Angeles
as of 5/9/26 12:21 AM PDT
Station Date Time Temp (°F) RH (%) Dew Pt (°F) Wind Spd (mph) Wind Dir (°) Wind Gust (mph) Latest Rain (In) Daily Rain (In) Daily Max Temp (°F) Daily Min Temp (°F)
Windsor-NW (Ranch 8) 5/9/26 0015 52.6   0.6 82   2 47.3   0.1 1.0   0.1 S | 190 2.0   1.2 0.00 0.00 77.8   3.5 51.2   0.0
Windsor-East (Ranch 16) 5/9/26 0015 50.0   2.9 94   2 48.4   2.2 0.1   2.2 SE | 136 1.0   3.8 0.00 0.00 75.0   3.0 49.7   1.9
Mark West-North (Ranch 14) 5/9/26 0015 53.1   0.5 85   7 48.7   1.6 0.5   1.5 NW | 325 1.8   4.5 0.00 0.00 74.5   3.6 51.8   0.0
Windsor-SE (Silk Rd) 5/9/26 0015 49.8   2.7 94   1 48.4   2.9 0.0   1.3 N | 0 0.0   4.2 0.00 0.00 75.8   3.3 49.5   1.6
Fulton-NW (Ranch 5) 5/9/26 0015 51.2   1.3 92   2 49.1   1.8 0.0   1.9 N | 0 0.0   4.7 0.00 0.00 74.3   2.7 51.0   0.9
Bisordi (Fulton) 5/9/26 0015 51.8   0.9 90   2 48.9   1.4 0.5   1.8 S | 182 1.5   3.8 0.00 0.00 74.1   3.3 51.8   0.4
Windsor-South (Laughlin Rd) 5/9/26 0015 51.8   0.3 88   4 48.5   1.6 - - - 0.00 0.00 75.5   3.0 51.4   0.5
Fulton-SE (Barnes Rd) 5/9/26 0015 53.1   0.1 85   6 48.8   1.9 0.0   3.4 N | 0 0.0   6.8 0.00 0.00 73.8   2.8 52.2   0.1
Fulton-SW (Ranch 21) 5/9/26 0015 50.5   1.5 91   2 48.0   2.1 0.2   2.7 S | 170 2.0   4.2 0.00 0.00 72.9   3.2 50.4   0.8
NW Santa Rosa (Piner Road) 5/9/26 0015 50.6   1.5 100   0 50.6   1.5 0.1   2.2 SW | 236 1.0   4.6 0.00 0.00 72.7   3.7 50.5   0.9
River Rd South (Denner Ranch) 5/9/26 0015 50.3   1.2 0   0 -67.5   0.6 0.4   2.9 SSE | 159 1.1   4.8 - - 74.1   2.0 49.8   0.2
West Santa Rosa (LOV Vineyard) 5/9/26 0015 50.5   1.4 92   3 48.2   2.4 0.1   0.5 SSW | 194 1.1   2.5 0.00 0.00 73.4   2.2 50.4   0.0
Guerneville Rd (Prokopakis) 5/9/26 0015 51.0   1.0 93   3 49.1   2.0 - - - 0.00 0.00 77.5   4.4 50.9   0.0
SunnyView Vineyard (SCWC) 5/9/26 0015 48.8   2.9 92   2 46.5   3.4 0.0   1.4 N | 0 0.0   4.0 0.00 0.00 72.6   3.0 48.6   2.3
Guerneville Rd West (Balletto) 5/9/26 0015 50.1   2.0 94   4 48.4   3.0 0.7   1.0 ESE | 103 1.4   1.8 0.00 0.00 73.9   2.7 49.9   0.2
Sanchietti Ranch 5/9/26 0015 50.7   2.3 92   3 48.6   3.0 1.0   1.5 SE | 126 1.6   2.8 0.00 0.00 73.3   3.6 50.7   0.3
Occidental Rd (Sebastopol) 5/9/26 0015 49.2   1.2 100   0 49.2   1.2 0.0   0.6 N | 0 0.0   2.4 0.00 0.00 73.4   2.2 48.9   0.4
Harper's Rest (Windsor-West) 5/9/26 0015 48.2   2.3 94   1 46.7   2.6 1.3   1.0 W | 262 2.4   0.4 0.00 0.00 76.9   2.4 47.9   0.9
Lower Westside Rd (Ranch 12) 5/9/26 0015 51.1   1.1 93   0 49.2   1.1 0.0   1.0 N | 0 0.0   2.8 0.00 0.00 77.4   1.5 50.8   0.8
Guerneville (Laughlin Rd) 5/9/26 0015 50.8   1.1 94   0 49.0   1.2 0.0   1.1 N | 0 0.0   3.0 0.00 0.00 79.2   7.0 50.8   0.7
Korbel (Winery) 5/9/26 0015 53.1   0.5 93   0 51.2   0.5 0.0   0.0 N | 0 0.0   0.0 0.00 0.00 80.7   6.6 51.7   0.4
Forestville (Shone Farms) 5/9/26 0015 51.4   0.6 91   3 48.9   1.5 0.0   2.0 NE | 39 0.9   2.5 0.00 0.00 76.6   1.2 49.9   0.0
Forestville-NE (Ranch 30) 5/9/26 0015 49.5   2.2 96   0 48.4   2.0 0.1   0.9 NNW | 329 1.2   2.8 0.00 0.00 76.0   0.1 49.4   1.5
Foggy Bend (Ranch 41) 5/9/26 0015 51.6   1.2 93   1 49.7   0.9 0.4   1.5 E | 88 1.8   1.8 0.00 0.00 77.4   1.8 51.5   0.7
Last Stop 5/9/26 0015 47.9   3.8 95   0 46.5   3.7 0.0   1.9 N | 0 0.0   3.6 0.00 0.00 77.0   1.0 47.5   1.7
Green Valley Vineyard 5/9/26 0015 49.8   1.4 96   1 48.7   1.7 0.3   1.1 N | 355 1.8   1.3 0.00 0.01 74.6   1.2 49.5   0.6
Park Royal 5/9/26 0015 51.1   0.9 88   6 47.6   2.8 - - - 0.00 0.00 72.6   2.9 50.2   0.9
Merino 5/9/26 0015 48.4   3.8 97   1 47.6   4.0 0.2   2.1 SSW | 195 0.8   3.9 0.00 0.00 72.2   2.8 48.2   2.5
Green Valley (Sanchietti) 5/9/26 0015 49.2   2.9 - - - - - - - 49.4   2.8 49.0   2.9
Keefer Ranch (Green Valley) 5/9/26 0015 48.7   3.0 95   0 47.4   3.1 - - - 0.00 0.00 75.3   1.1 48.7   0.9
Graton-West (Dutton Ranch) 5/9/26 0015 50.2   2.0 100   0 50.3   2.0 0.1   2.1 NW | 307 0.7   3.1 0.00 0.01 75.5   0.2 50.0   1.1
Graton-South (Mill Station Rd) 5/9/26 0015 49.0   1.7 93   3 47.1   2.5 0.0   0.0 N | 0 0.0   0.0 0.00 0.00 72.8   2.5 48.6   0.2
Occidental (Horseshoe Bend) 5/9/26 0015 51.5   3.7 94   3 50.0   2.8 - - - 0.00 0.00 72.3   1.2 48.6   1.0
Sexton Valley (Jacqueline's Blk) 5/9/26 0015 48.9   1.0 94   2 47.4   1.6 0.1   0.5 WNW | 301 1.2   0.4 0.00 0.01 71.6   2.1 48.6   0.5
Sebastopol Hills (Burnside Rd) 5/9/26 0015 50.4   0.0 95   4 49.1   1.3 0.2   0.1 NW | 305 1.0   1.0 0.00 0.01 69.3   3.9 49.3   0.2
Pleasant Hill 5/9/26 0015 46.3   1.1 95   2 44.9   1.6 0.3   0.1 WSW | 238 1.1   0.0 0.00 0.01 70.9   2.5 46.2   0.4
Seaview/Fort Ross (Hirsch) 5/9/26 0015 56.7   2.2 57   36 41.8   10.7 4.1   2.7 NNE | 15 7.7   5.3 0.00 0.00 74.4   10.9 43.9   3.3
Max     56.7 100 51.2 4.1 - 7.7 0.00 0.01 80.7 52.2
Avg     50.5 89 45.0 0.4 - 1.1 0.00 - - -
Min     46.3 0 -67.5 0.0 - 0.0 0.00 0.00 49.4 43.9